Time;durP1;ratioP1;P1;durP2;ratioP2;P2;SDS_P1;SDS_P2;PMS_P1;PMS_P2;Temp;Humidity;BMP_temperature;BMP_pressure;BME280_temperature;BME280_humidity;BME280_pressure;Samples;Min_cycle;Max_cycle;Signal;HPM_P1;HPM_P2
2023/12/23 00:01:24;;;;;;;21.20;15.63;;;8.40;99.90;;;;;;5000385;28;20037;-82
2023/12/23 00:03:51;;;;;;;27.33;16.00;;;8.40;99.90;;;;;;5000482;28;20023;-83
2023/12/23 00:06:18;;;;;;;32.17;17.23;;;8.30;99.90;;;;;;4993151;28;20023;-83
2023/12/23 00:08:44;;;;;;;30.52;17.25;;;8.30;99.90;;;;;;4979279;28;20035;-83
2023/12/23 00:11:11;;;;;;;21.45;14.60;;;8.20;99.90;;;;;;4979642;28;20049;-83
2023/12/23 00:13:37;;;;;;;16.80;12.85;;;8.20;99.90;;;;;;4997277;28;20084;-82
2023/12/23 00:16:04;;;;;;;19.58;12.25;;;8.30;99.90;;;;;;4977524;28;20042;-82
2023/12/23 00:18:31;;;;;;;15.73;12.55;;;8.50;99.90;;;;;;4995633;28;20467;-83
2023/12/23 00:20:57;;;;;;;16.80;11.65;;;8.70;99.90;;;;;;4979611;28;20142;-83
2023/12/23 00:23:23;;;;;;;14.18;11.20;;;8.80;99.90;;;;;;4978588;28;20022;-81
2023/12/23 00:25:50;;;;;;;12.25;10.88;;;8.80;99.90;;;;;;4978651;28;20037;-82
2023/12/23 00:28:16;;;;;;;15.10;11.25;;;8.80;99.90;;;;;;4993179;28;20109;-82
2023/12/23 00:30:43;;;;;;;13.35;11.32;;;8.80;99.90;;;;;;4977029;28;20384;-82
2023/12/23 00:33:09;;;;;;;15.05;11.20;;;8.70;99.90;;;;;;4993152;28;20101;-81
2023/12/23 00:35:36;;;;;;;18.55;10.93;;;8.80;99.90;;;;;;4976026;28;20033;-82
2023/12/23 00:38:03;;;;;;;19.25;10.85;;;8.90;99.90;;;;;;4999617;28;20026;-82
2023/12/23 00:40:29;;;;;;;19.38;11.10;;;9.00;99.90;;;;;;5016070;28;20041;-82
2023/12/23 00:42:56;;;;;;;18.55;11.32;;;9.00;99.90;;;;;;4993996;28;20480;-82
2023/12/23 00:45:22;;;;;;;24.08;11.25;;;8.90;99.90;;;;;;4989848;28;20119;-82
2023/12/23 00:47:49;;;;;;;19.70;11.40;;;8.90;99.90;;;;;;4999648;28;20033;-82
2023/12/23 00:50:16;;;;;;;16.98;10.80;;;8.80;99.90;;;;;;4999744;28;20497;-83
2023/12/23 00:52:42;;;;;;;20.65;11.68;;;8.80;99.90;;;;;;4999505;28;20040;-83
2023/12/23 00:55:09;;;;;;;17.52;11.02;;;8.80;99.90;;;;;;4990921;28;20055;-83
2023/12/23 00:57:37;;;;;;;24.17;11.68;;;8.90;99.90;;;;;;4999268;28;20026;-83
2023/12/23 01:00:04;;;;;;;16.13;11.00;;;8.80;99.90;;;;;;4999454;28;20482;-83
2023/12/23 01:02:31;;;;;;;18.30;10.90;;;8.80;99.90;;;;;;5015705;28;20025;-82
2023/12/23 01:04:57;;;;;;;19.58;11.32;;;8.70;99.90;;;;;;4998203;28;20050;-83
2023/12/23 01:07:23;;;;;;;18.73;11.32;;;8.60;99.90;;;;;;4994456;28;20032;-82
2023/12/23 01:09:50;;;;;;;16.13;10.40;;;8.60;99.90;;;;;;5012654;28;20426;-82
2023/12/23 01:12:16;;;;;;;19.70;10.82;;;8.50;99.90;;;;;;4996285;28;20403;-83
2023/12/23 01:14:42;;;;;;;19.55;10.80;;;8.40;99.90;;;;;;5002980;28;20388;-83
2023/12/23 01:17:09;;;;;;;16.00;10.43;;;8.30;99.90;;;;;;4992283;28;20064;-83
2023/12/23 01:19:37;;;;;;;16.85;10.57;;;8.20;99.90;;;;;;5009764;28;20368;-83
2023/12/23 01:22:04;;;;;;;17.42;10.15;;;8.10;99.90;;;;;;4996047;28;20034;-83
2023/12/23 01:24:30;;;;;;;18.27;9.63;;;8.00;99.90;;;;;;5006448;28;20022;-83
2023/12/23 01:27:00;;;;;;;16.83;10.50;;;7.90;99.90;;;;;;5002874;28;20026;-82
2023/12/23 01:29:26;;;;;;;15.65;9.40;;;7.80;99.90;;;;;;5012260;28;20044;-82
2023/12/23 01:31:52;;;;;;;19.02;9.55;;;7.70;99.90;;;;;;5013514;28;20385;-82
2023/12/23 01:34:19;;;;;;;22.50;9.70;;;7.60;99.90;;;;;;5013194;28;20097;-82
2023/12/23 01:36:45;;;;;;;13.93;9.48;;;7.50;99.90;;;;;;4982784;28;20057;-83
2023/12/23 01:39:11;;;;;;;12.60;9.20;;;7.40;99.90;;;;;;4992855;28;20023;-83
2023/12/23 01:41:44;;;;;;;14.80;9.02;;;7.30;99.90;;;;;;4976412;28;20096;-82
2023/12/23 01:44:11;;;;;;;14.40;9.70;;;7.30;99.90;;;;;;4976598;28;20027;-83
2023/12/23 01:46:39;;;;;;;14.32;9.52;;;7.20;99.90;;;;;;4988793;28;20034;-82
2023/12/23 01:49:09;;;;;;;12.90;8.80;;;7.10;99.90;;;;;;5016135;28;20026;-83
2023/12/23 01:51:36;;;;;;;17.90;8.85;;;7.10;99.90;;;;;;4999755;28;20038;-83
2023/12/23 01:54:07;;;;;;;20.35;9.82;;;7.10;99.90;;;;;;5015968;28;20026;-82
2023/12/23 01:56:34;;;;;;;13.02;9.35;;;7.00;99.90;;;;;;5000785;28;20042;-82
2023/12/23 01:59:02;;;;;;;20.20;9.50;;;7.00;99.90;;;;;;4999685;28;20041;-83
2023/12/23 02:01:31;;;;;;;15.18;8.82;;;6.90;99.90;;;;;;4999898;28;20046;-83
2023/12/23 02:03:58;;;;;;;12.45;9.40;;;6.90;99.90;;;;;;5018283;28;20103;-83
2023/12/23 02:06:24;;;;;;;18.60;9.82;;;6.90;99.90;;;;;;5001904;28;20173;-82
2023/12/23 02:08:50;;;;;;;21.92;9.82;;;6.80;99.90;;;;;;4983316;28;20030;-83
2023/12/23 02:11:47;;;;;;;18.80;9.52;;;6.70;99.90;;;;;;4983162;28;20034;-83
2023/12/23 02:14:47;;;;;;;16.60;8.98;;;6.70;99.90;;;;;;4969722;28;20475;-83
2023/12/23 02:17:17;;;;;;;13.07;8.85;;;6.60;99.90;;;;;;4979707;28;20049;-82
2023/12/23 02:19:43;;;;;;;17.30;9.93;;;6.60;99.90;;;;;;4979937;28;20097;-82
2023/12/23 02:22:10;;;;;;;20.00;10.10;;;6.50;99.90;;;;;;4963647;28;20027;-83
2023/12/23 02:24:39;;;;;;;16.85;9.93;;;6.40;99.90;;;;;;4963643;28;20410;-83
2023/12/23 02:27:11;;;;;;;21.27;10.27;;;6.40;99.90;;;;;;5009856;28;20057;-83
2023/12/23 02:29:40;;;;;;;21.38;10.15;;;6.40;99.90;;;;;;5018709;28;20030;-83
2023/12/23 02:32:10;;;;;;;26.00;11.45;;;6.30;99.90;;;;;;5018604;28;20026;-83
2023/12/23 02:34:37;;;;;;;27.85;11.25;;;6.30;99.90;;;;;;4998361;28;20033;-83
2023/12/23 02:37:04;;;;;;;26.73;11.52;;;6.30;99.90;;;;;;4970465;28;20034;-83
2023/12/23 02:39:30;;;;;;;25.70;12.52;;;6.20;99.90;;;;;;4979384;28;20073;-83
2023/12/23 02:41:57;;;;;;;44.53;13.02;;;6.20;99.90;;;;;;4979425;28;20117;-83
2023/12/23 02:44:23;;;;;;;19.02;11.82;;;6.20;99.90;;;;;;4995378;28;20033;-83
2023/12/23 02:46:50;;;;;;;27.90;13.18;;;6.20;99.90;;;;;;5028798;28;20026;-83
2023/12/23 02:49:18;;;;;;;26.95;11.90;;;6.20;99.90;;;;;;5002500;28;20037;-83
2023/12/23 02:51:45;;;;;;;21.05;11.60;;;6.20;99.90;;;;;;5001936;28;20116;-83
2023/12/23 02:54:11;;;;;;;34.35;13.65;;;6.20;99.90;;;;;;5001871;28;20121;-82
2023/12/23 02:56:37;;;;;;;30.77;13.32;;;6.20;99.90;;;;;;4996821;28;20029;-83
2023/12/23 02:59:03;;;;;;;28.33;12.27;;;6.30;99.90;;;;;;5001469;28;20029;-83
2023/12/23 03:01:30;;;;;;;27.10;12.27;;;6.30;99.90;;;;;;5001780;28;20025;-83
2023/12/23 03:03:56;;;;;;;22.17;11.98;;;6.30;99.90;;;;;;5017676;28;20025;-83
2023/12/23 03:06:23;;;;;;;30.23;12.30;;;6.30;99.90;;;;;;4986449;28;20036;-83
2023/12/23 03:08:52;;;;;;;22.20;12.07;;;6.30;99.90;;;;;;4978691;28;20144;-83
2023/12/23 03:11:19;;;;;;;21.88;11.88;;;6.40;99.90;;;;;;4965880;28;20037;-83
2023/12/23 03:13:45;;;;;;;27.58;11.32;;;6.50;99.90;;;;;;5016266;28;20123;-83
2023/12/23 03:16:16;;;;;;;22.90;10.63;;;6.70;99.90;;;;;;4988717;28;20044;-83
2023/12/23 03:18:44;;;;;;;34.33;12.45;;;7.00;99.90;;;;;;4998014;28;20132;-83
2023/12/23 03:21:10;;;;;;;25.20;10.65;;;7.20;99.90;;;;;;4981880;28;20034;-83
2023/12/23 03:23:37;;;;;;;35.25;12.13;;;7.30;99.90;;;;;;5015542;28;20031;-82
2023/12/23 03:26:04;;;;;;;24.88;11.40;;;7.20;99.90;;;;;;4981720;28;20036;-83
2023/12/23 03:28:33;;;;;;;31.15;11.63;;;6.90;99.90;;;;;;4997986;28;20036;-83
2023/12/23 03:31:00;;;;;;;23.45;11.10;;;6.60;99.90;;;;;;5015365;28;20113;-82
2023/12/23 03:33:27;;;;;;;22.27;11.93;;;6.40;99.90;;;;;;4996969;28;20025;-83
2023/12/23 03:35:53;;;;;;;25.95;10.90;;;6.30;99.90;;;;;;5015064;28;20041;-83
2023/12/23 03:38:21;;;;;;;23.00;11.07;;;6.20;99.90;;;;;;4981467;28;20491;-83
2023/12/23 03:40:48;;;;;;;26.23;11.13;;;6.20;99.90;;;;;;4981555;28;20109;-83
2023/12/23 03:43:14;;;;;;;17.77;10.88;;;6.10;99.90;;;;;;4996100;28;20116;-83
2023/12/23 03:45:41;;;;;;;18.52;10.43;;;6.10;99.90;;;;;;4966861;28;20034;-82
2023/12/23 03:48:07;;;;;;;20.80;11.02;;;6.10;99.90;;;;;;5016977;28;20176;-82
2023/12/23 03:50:33;;;;;;;23.98;11.00;;;6.10;99.90;;;;;;5016975;28;20052;-82
2023/12/23 03:53:03;;;;;;;32.35;11.48;;;6.00;99.90;;;;;;5016999;28;20033;-82
2023/12/23 03:55:32;;;;;;;24.70;10.88;;;6.00;99.90;;;;;;4981626;28;20038;-82
2023/12/23 03:58:02;;;;;;;29.85;11.25;;;5.90;99.90;;;;;;5000447;28;20042;-82
2023/12/23 04:00:30;;;;;;;22.45;11.40;;;5.80;99.90;;;;;;5016840;28;20082;-82
2023/12/23 04:02:57;;;;;;;22.40;11.40;;;5.80;99.90;;;;;;5000562;28;20026;-82
2023/12/23 04:05:24;;;;;;;22.80;11.02;;;5.70;99.90;;;;;;4991306;28;20051;-82
2023/12/23 04:07:51;;;;;;;30.23;12.40;;;5.70;99.90;;;;;;4993563;28;20027;-82
2023/12/23 04:10:20;;;;;;;22.95;11.57;;;5.80;99.90;;;;;;4976798;28;20057;-81
2023/12/23 04:12:46;;;;;;;29.83;11.90;;;5.80;99.90;;;;;;4977590;28;20041;-84
2023/12/23 04:15:13;;;;;;;24.67;11.50;;;5.80;99.90;;;;;;4977435;28;20034;-83
2023/12/23 04:17:39;;;;;;;25.85;11.38;;;5.80;99.90;;;;;;4977497;28;20181;-83
2023/12/23 04:20:09;;;;;;;21.02;11.02;;;5.80;99.90;;;;;;4977413;28;20054;-83
2023/12/23 04:22:35;;;;;;;35.97;12.27;;;5.80;99.90;;;;;;4977315;28;20113;-82
2023/12/23 04:25:02;;;;;;;29.08;10.68;;;5.80;99.90;;;;;;4977119;28;20030;-82
2023/12/23 04:27:28;;;;;;;27.48;11.57;;;5.70;99.90;;;;;;4993329;28;20022;-82
2023/12/23 04:29:54;;;;;;;34.05;11.63;;;5.70;99.90;;;;;;5012709;28;20030;-81
2023/12/23 04:32:21;;;;;;;19.05;11.32;;;5.70;99.90;;;;;;4997926;28;20022;-80
2023/12/23 04:34:47;;;;;;;35.63;12.68;;;5.70;99.90;;;;;;4980188;28;20027;-83
2023/12/23 04:37:15;;;;;;;43.55;12.35;;;5.70;99.90;;;;;;4990185;28;20038;-82
2023/12/23 04:39:41;;;;;;;40.75;12.48;;;5.70;99.90;;;;;;4973648;28;20035;-82
2023/12/23 04:42:08;;;;;;;37.13;13.18;;;5.70;99.90;;;;;;4990015;28;20027;-81
2023/12/23 04:44:37;;;;;;;32.95;12.57;;;5.70;99.90;;;;;;4966416;28;20055;-83
2023/12/23 04:47:04;;;;;;;37.33;12.90;;;5.80;99.90;;;;;;4983012;28;20098;-84
2023/12/23 04:49:30;;;;;;;38.08;12.95;;;5.80;99.90;;;;;;4973588;28;20027;-82
2023/12/23 04:51:56;;;;;;;35.13;12.07;;;5.80;99.90;;;;;;4975980;28;20030;-83
2023/12/23 04:54:23;;;;;;;31.75;12.50;;;6.00;99.90;;;;;;4966234;28;20030;-83
2023/12/23 04:56:49;;;;;;;25.30;11.23;;;6.10;99.90;;;;;;4978326;28;20062;-81
2023/12/23 04:59:16;;;;;;;24.77;11.70;;;6.20;99.90;;;;;;4976477;28;20033;-81
2023/12/23 05:01:42;;;;;;;22.45;11.70;;;6.20;99.90;;;;;;4976636;28;20034;-82
2023/12/23 05:04:12;;;;;;;23.65;11.02;;;6.20;99.90;;;;;;4992292;28;20043;-81
2023/12/23 05:06:38;;;;;;;26.35;10.75;;;6.30;99.90;;;;;;4995699;28;20033;-81
2023/12/23 05:09:05;;;;;;;30.83;10.80;;;6.30;99.90;;;;;;4973516;28;20041;-83
2023/12/23 05:11:32;;;;;;;25.70;11.65;;;6.30;99.90;;;;;;4973204;28;20365;-82
2023/12/23 05:14:01;;;;;;;32.35;11.85;;;6.20;99.90;;;;;;4973112;28;20023;-81
2023/12/23 05:16:29;;;;;;;29.02;10.65;;;6.20;99.90;;;;;;4971733;28;20120;-81
2023/12/23 05:18:55;;;;;;;19.60;11.05;;;6.10;99.90;;;;;;4994636;28;20109;-81
2023/12/23 05:21:22;;;;;;;20.65;10.52;;;6.00;99.90;;;;;;5009738;28;20091;-81
2023/12/23 05:23:51;;;;;;;22.13;10.43;;;5.90;99.90;;;;;;5011497;28;20025;-80
2023/12/23 05:26:20;;;;;;;26.02;9.68;;;5.80;99.90;;;;;;4984780;28;20025;-80
2023/12/23 05:28:47;;;;;;;27.33;10.50;;;5.80;99.90;;;;;;4995681;28;20041;-81
2023/12/23 05:31:13;;;;;;;17.35;9.98;;;5.80;99.90;;;;;;5012242;28;20030;-81
2023/12/23 05:33:40;;;;;;;25.15;10.77;;;5.90;99.90;;;;;;4993572;28;20115;-81
2023/12/23 05:36:08;;;;;;;23.58;11.05;;;5.80;99.90;;;;;;4979890;28;20042;-81
2023/12/23 05:38:34;;;;;;;18.58;10.15;;;5.80;99.90;;;;;;4972853;28;20113;-81
2023/12/23 05:41:01;;;;;;;19.70;10.40;;;5.90;99.90;;;;;;4984498;28;20041;-81
2023/12/23 05:43:27;;;;;;;19.77;10.82;;;5.90;99.90;;;;;;4993454;28;20042;-81
2023/12/23 05:45:54;;;;;;;21.67;9.90;;;6.00;99.90;;;;;;4992084;28;20054;-81
2023/12/23 05:48:23;;;;;;;19.83;10.10;;;5.80;99.90;;;;;;4993466;28;20551;-80
2023/12/23 05:50:50;;;;;;;19.88;10.80;;;5.70;99.90;;;;;;4993424;28;20045;-81
2023/12/23 05:53:16;;;;;;;16.80;10.10;;;5.60;99.90;;;;;;4992121;28;20158;-81
2023/12/23 05:55:43;;;;;;;14.25;10.38;;;5.60;99.90;;;;;;4992185;28;20440;-80
2023/12/23 05:58:09;;;;;;;14.85;9.93;;;5.60;99.90;;;;;;5011862;28;20487;-81
2023/12/23 06:00:35;;;;;;;20.88;10.27;;;5.60;99.90;;;;;;4991087;28;20038;-80
2023/12/23 06:03:01;;;;;;;22.50;10.68;;;5.70;99.90;;;;;;4980589;28;20048;-81
2023/12/23 06:05:30;;;;;;;15.15;9.93;;;5.60;99.90;;;;;;4957702;28;20043;-80
2023/12/23 06:08:02;;;;;;;23.05;11.13;;;5.60;99.90;;;;;;4955429;28;20023;-80
2023/12/23 06:10:28;;;;;;;23.83;11.38;;;5.60;99.90;;;;;;4943412;28;20031;-80
2023/12/23 06:12:55;;;;;;;18.60;10.65;;;5.60;99.90;;;;;;4955113;28;20031;-80
2023/12/23 06:15:21;;;;;;;20.27;11.30;;;5.60;99.90;;;;;;4956631;28;20125;-80
2023/12/23 06:17:50;;;;;;;25.05;12.57;;;5.60;99.90;;;;;;4989548;28;20058;-80
2023/12/23 06:20:17;;;;;;;25.77;11.88;;;5.50;99.90;;;;;;4973100;28;20042;-80
2023/12/23 06:22:43;;;;;;;27.85;11.85;;;5.60;99.90;;;;;;4968561;28;20031;-80
2023/12/23 06:25:10;;;;;;;25.65;11.20;;;5.60;99.90;;;;;;4972341;28;20117;-80
2023/12/23 06:27:36;;;;;;;21.25;11.82;;;5.80;99.90;;;;;;4987899;28;20484;-80
2023/12/23 06:30:03;;;;;;;33.95;12.65;;;5.80;99.90;;;;;;4991677;28;20522;-80
2023/12/23 06:32:29;;;;;;;25.77;11.60;;;5.90;99.90;;;;;;4978022;28;20118;-80
2023/12/23 06:34:56;;;;;;;20.50;10.48;;;6.00;99.90;;;;;;4975866;28;20491;-80
2023/12/23 06:37:22;;;;;;;14.88;10.43;;;6.20;99.90;;;;;;4987054;28;20039;-80
2023/12/23 06:39:48;;;;;;;21.15;10.90;;;6.30;99.90;;;;;;4973617;28;20400;-81
2023/12/23 06:42:15;;;;;;;17.35;10.15;;;6.50;99.90;;;;;;4959455;28;20082;-80
2023/12/23 06:44:42;;;;;;;15.52;9.57;;;6.60;99.90;;;;;;4975725;28;20117;-80
2023/12/23 06:47:08;;;;;;;14.70;9.10;;;6.70;99.90;;;;;;4970634;28;20035;-80
2023/12/23 06:49:35;;;;;;;20.52;8.90;;;6.90;99.90;;;;;;4957868;29;20027;-81
2023/12/23 06:52:01;;;;;;;17.88;9.40;;;7.00;99.90;;;;;;4966163;28;20035;-80
2023/12/23 06:54:27;;;;;;;15.55;10.95;;;7.10;99.90;;;;;;4953903;28;20027;-81
2023/12/23 06:56:54;;;;;;;19.05;12.07;;;7.10;99.90;;;;;;4974689;28;20042;-80
2023/12/23 06:59:23;;;;;;;16.02;10.43;;;7.30;99.90;;;;;;4975135;28;20027;-81
2023/12/23 07:01:52;;;;;;;15.73;10.20;;;7.60;99.90;;;;;;4967471;28;20031;-81
2023/12/23 07:04:19;;;;;;;19.08;10.20;;;8.10;99.90;;;;;;4977999;28;20034;-81
2023/12/23 07:06:45;;;;;;;21.83;13.50;;;8.50;99.90;;;;;;5005979;28;20057;-81
2023/12/23 07:09:11;;;;;;;34.35;15.75;;;9.00;99.90;;;;;;5001244;28;20033;-81
2023/12/23 07:11:37;;;;;;;32.42;18.73;;;9.50;99.90;;;;;;5035211;28;20070;-81
2023/12/23 07:14:07;;;;;;;36.47;19.05;;;9.60;99.90;;;;;;4986589;28;20421;-81
2023/12/23 07:16:33;;;;;;;31.88;18.63;;;9.80;99.90;;;;;;4990875;28;20034;-81
2023/12/23 07:18:59;;;;;;;30.75;19.85;;;10.10;99.90;;;;;;4980529;28;20037;-82
2023/12/23 07:21:26;;;;;;;35.00;22.30;;;10.30;99.90;;;;;;4994388;28;20475;-81
2023/12/23 07:23:52;;;;;;;31.42;20.98;;;10.50;99.90;;;;;;4994368;28;20403;-81
2023/12/23 07:26:19;;;;;;;33.67;22.92;;;10.60;99.90;;;;;;5000541;28;20020;-81
2023/12/23 07:28:45;;;;;;;33.60;23.15;;;10.80;99.90;;;;;;5012500;28;20033;-81
2023/12/23 07:31:12;;;;;;;29.65;22.55;;;11.10;99.90;;;;;;5014964;28;20045;-81
2023/12/23 07:33:39;;;;;;;31.17;24.00;;;11.20;99.90;;;;;;5015001;28;20022;-81
2023/12/23 07:36:05;;;;;;;35.85;25.13;;;11.40;99.90;;;;;;4980751;28;20054;-80
2023/12/23 07:38:32;;;;;;;29.67;23.67;;;11.60;99.90;;;;;;4996176;28;20062;-83
2023/12/23 07:41:00;;;;;;;26.27;23.40;;;11.70;99.90;;;;;;4962201;28;20125;-83
2023/12/23 07:43:32;;;;;;;26.17;23.38;;;12.00;99.90;;;;;;4983296;28;20026;-83
2023/12/23 07:46:03;;;;;;;25.17;22.70;;;12.10;99.90;;;;;;4978974;28;20483;-82
2023/12/23 07:48:32;;;;;;;24.85;22.25;;;12.20;99.90;;;;;;5001271;28;20030;-83
2023/12/23 07:51:08;;;;;;;29.70;24.70;;;12.30;99.90;;;;;;4978514;28;20081;-83
2023/12/23 07:53:37;;;;;;;27.13;24.40;;;12.40;99.90;;;;;;4996730;28;20038;-84
2023/12/23 07:56:11;;;;;;;28.77;25.67;;;12.60;99.90;;;;;;4973012;28;20042;-83
2023/12/23 07:58:45;;;;;;;27.08;24.38;;;12.80;99.90;;;;;;5016807;28;20025;-82
2023/12/23 08:01:15;;;;;;;32.25;24.48;;;13.10;99.90;;;;;;5016785;28;20120;-83
2023/12/23 08:03:50;;;;;;;25.30;22.75;;;13.20;99.90;;;;;;5009164;28;20037;-82
2023/12/23 08:06:18;;;;;;;23.60;21.30;;;13.40;99.90;;;;;;4963726;28;20031;-84
2023/12/23 08:08:48;;;;;;;33.35;21.45;;;13.60;99.90;;;;;;4944704;28;20062;-83
2023/12/23 08:11:15;;;;;;;28.15;22.17;;;13.70;99.90;;;;;;4966426;28;20022;-84
2023/12/23 08:13:41;;;;;;;27.27;22.52;;;13.80;99.90;;;;;;4974940;28;20484;-83
2023/12/23 08:16:08;;;;;;;23.52;21.20;;;13.90;99.90;;;;;;4968157;28;20043;-83
2023/12/23 08:18:35;;;;;;;29.60;22.80;;;13.90;99.90;;;;;;4977175;28;20022;-82
2023/12/23 08:21:03;;;;;;;26.48;21.98;;;14.00;99.90;;;;;;4960586;28;20034;-82
2023/12/23 08:23:29;;;;;;;30.88;21.90;;;14.10;99.90;;;;;;4966839;28;20503;-82
2023/12/23 08:25:56;;;;;;;24.10;21.92;;;14.10;99.90;;;;;;4954751;28;20039;-81
2023/12/23 08:28:22;;;;;;;26.33;22.20;;;14.20;99.90;;;;;;4957185;28;20034;-81
2023/12/23 08:30:48;;;;;;;24.58;22.00;;;14.30;99.90;;;;;;4956227;28;20031;-81
2023/12/23 08:33:15;;;;;;;25.20;22.55;;;14.40;99.90;;;;;;4959330;28;20503;-80
2023/12/23 08:35:44;;;;;;;24.60;22.02;;;14.50;99.90;;;;;;4962893;28;20043;-81
2023/12/23 08:38:10;;;;;;;24.08;21.58;;;14.60;99.90;;;;;;4966569;28;20056;-81
2023/12/23 08:40:37;;;;;;;32.55;22.80;;;14.70;99.90;;;;;;4954141;28;20374;-83
2023/12/23 08:43:04;;;;;;;25.55;21.45;;;14.90;99.90;;;;;;4938455;29;20090;-81
2023/12/23 08:45:30;;;;;;;27.83;20.50;;;14.90;99.90;;;;;;4957925;28;20023;-83
2023/12/23 08:47:57;;;;;;;25.30;20.83;;;15.00;99.90;;;;;;4947865;28;20126;-82
2023/12/23 08:50:24;;;;;;;23.08;20.77;;;15.10;99.90;;;;;;4954173;28;20027;-83
2023/12/23 08:52:51;;;;;;;21.95;19.52;;;15.20;99.90;;;;;;4955869;28;20035;-81
2023/12/23 08:55:18;;;;;;;22.88;20.05;;;15.20;99.90;;;;;;4943971;28;20038;-82
2023/12/23 08:57:45;;;;;;;23.98;19.67;;;15.40;99.90;;;;;;4971258;28;20078;-83
2023/12/23 09:00:14;;;;;;;23.75;19.98;;;15.60;99.90;;;;;;4962428;28;20058;-82
2023/12/23 09:02:42;;;;;;;23.67;20.08;;;15.50;99.90;;;;;;4938160;29;20066;-82
2023/12/23 09:05:10;;;;;;;32.00;20.17;;;15.50;99.90;;;;;;4978594;28;20039;-82
2023/12/23 09:07:38;;;;;;;21.73;19.42;;;15.70;99.90;;;;;;4972538;28;20491;-82
2023/12/23 09:10:06;;;;;;;28.50;20.65;;;15.70;99.90;;;;;;4978113;28;20022;-83
2023/12/23 09:12:35;;;;;;;21.80;19.15;;;15.80;99.90;;;;;;4985380;28;20040;-82
2023/12/23 09:15:06;;;;;;;21.40;19.45;;;15.80;99.90;;;;;;4958229;28;20030;-83
2023/12/23 09:17:33;;;;;;;24.60;19.92;;;15.90;99.90;;;;;;4984219;28;20552;-82
2023/12/23 09:19:59;;;;;;;26.13;19.67;;;15.90;99.90;;;;;;4993471;28;20144;-86
2023/12/23 09:22:25;;;;;;;21.80;19.58;;;16.00;99.90;;;;;;5001890;28;20054;-85
2023/12/23 09:24:52;;;;;;;24.77;19.10;;;16.10;99.90;;;;;;5001931;28;20030;-84
2023/12/23 09:27:19;;;;;;;21.70;19.42;;;16.10;99.90;;;;;;4993253;28;20407;-83
2023/12/23 09:29:48;;;;;;;28.02;20.95;;;16.20;99.90;;;;;;4986822;28;20062;-84
2023/12/23 09:32:14;;;;;;;23.17;20.63;;;16.30;99.90;;;;;;4976861;28;20031;-84
2023/12/23 09:34:41;;;;;;;22.30;20.23;;;16.30;99.90;;;;;;4974990;28;20027;-83
2023/12/23 09:37:07;;;;;;;24.55;20.35;;;16.30;99.90;;;;;;4979549;28;20023;-83
2023/12/23 09:39:33;;;;;;;21.95;19.98;;;16.30;99.90;;;;;;4989093;28;20538;-83
2023/12/23 09:42:00;;;;;;;22.48;20.00;;;16.40;99.90;;;;;;4998334;28;20483;-84
2023/12/23 09:44:26;;;;;;;24.73;20.08;;;16.50;99.90;;;;;;4974597;28;20034;-84
2023/12/23 09:46:53;;;;;;;23.00;19.95;;;16.50;99.90;;;;;;4989658;28;20056;-83
2023/12/23 09:49:19;;;;;;;22.23;20.02;;;16.50;99.90;;;;;;4980258;28;20027;-80
2023/12/23 09:51:47;;;;;;;23.33;21.00;;;16.60;99.90;;;;;;4975042;28;20038;-84
2023/12/23 09:54:20;;;;;;;31.10;21.67;;;16.60;99.90;;;;;;4973606;28;20077;-82
2023/12/23 09:56:50;;;;;;;22.50;20.20;;;16.70;99.90;;;;;;4986649;28;20042;-82
2023/12/23 09:59:16;;;;;;;28.75;21.88;;;16.70;99.90;;;;;;5011795;28;20428;-84
2023/12/23 10:01:46;;;;;;;22.42;20.45;;;16.80;99.90;;;;;;4981955;28;20041;-83
2023/12/23 10:04:13;;;;;;;24.35;20.75;;;16.80;99.90;;;;;;4997883;28;20030;-84
2023/12/23 10:06:40;;;;;;;25.52;21.80;;;16.80;99.90;;;;;;4995259;28;20034;-82
2023/12/23 10:09:10;;;;;;;22.73;20.70;;;16.80;99.90;;;;;;4990115;28;20026;-82
2023/12/23 10:11:36;;;;;;;23.23;20.80;;;16.90;99.90;;;;;;4991751;28;20117;-83
2023/12/23 10:14:02;;;;;;;23.15;20.92;;;17.00;99.90;;;;;;4993680;28;20105;-81
2023/12/23 10:16:29;;;;;;;24.80;21.95;;;17.10;99.90;;;;;;4982887;28;20038;-82
2023/12/23 10:18:56;;;;;;;25.58;19.67;;;17.10;99.90;;;;;;4982792;28;20026;-82
2023/12/23 10:21:23;;;;;;;21.13;19.52;;;17.20;99.90;;;;;;4967922;28;20418;-84
2023/12/23 10:23:50;;;;;;;22.65;20.42;;;17.20;99.90;;;;;;4972374;28;20068;-83
2023/12/23 10:26:17;;;;;;;28.08;21.75;;;17.20;99.90;;;;;;4985193;28;20061;-83
2023/12/23 10:28:46;;;;;;;23.08;20.98;;;17.20;99.90;;;;;;4981479;28;20030;-83
2023/12/23 10:31:13;;;;;;;23.65;19.52;;;17.20;99.90;;;;;;4996482;28;20022;-86
2023/12/23 10:33:46;;;;;;;23.45;21.17;;;17.20;99.90;;;;;;4982860;28;20060;-85
2023/12/23 10:36:13;;;;;;;31.40;21.13;;;17.20;99.90;;;;;;4999358;28;20042;-85
2023/12/23 10:38:53;;;;;;;24.60;21.50;;;17.20;99.90;;;;;;4991107;28;20395;-86
2023/12/23 10:41:50;;;;;;;24.67;21.98;;;17.30;99.90;;;;;;4982796;28;20030;-85
2023/12/23 10:44:18;;;;;;;25.98;23.33;;;17.30;99.90;;;;;;4992715;28;20467;-84
2023/12/23 10:46:46;;;;;;;28.27;23.83;;;17.40;99.90;;;;;;4986721;28;20478;-84
2023/12/23 10:49:17;;;;;;;26.80;23.90;;;17.30;99.90;;;;;;5001568;28;20037;-81
2023/12/23 10:51:45;;;;;;;27.55;24.55;;;17.30;99.90;;;;;;4997721;28;20029;-83
2023/12/23 10:54:12;;;;;;;29.42;25.00;;;17.30;99.90;;;;;;4981882;28;20026;-78
2023/12/23 10:56:40;;;;;;;28.77;25.92;;;17.30;99.90;;;;;;4985370;28;20437;-83
2023/12/23 10:59:08;;;;;;;27.67;25.15;;;17.30;99.90;;;;;;5018237;28;20108;-83
2023/12/23 11:01:38;;;;;;;29.63;26.23;;;17.30;99.90;;;;;;5034968;28;20025;-82
2023/12/23 11:04:05;;;;;;;29.65;26.60;;;17.40;99.90;;;;;;4999816;28;20506;-83
2023/12/23 11:06:42;;;;;;;30.85;26.30;;;17.30;99.90;;;;;;5000538;28;20399;-82
2023/12/23 11:09:11;;;;;;;27.45;24.85;;;17.30;99.90;;;;;;5035278;28;20025;-81
2023/12/23 11:11:40;;;;;;;28.65;25.58;;;17.30;99.90;;;;;;5000994;28;20100;-82
2023/12/23 11:14:08;;;;;;;28.63;25.65;;;17.40;99.90;;;;;;5017363;28;20039;-82
2023/12/23 11:16:34;;;;;;;28.20;25.50;;;17.40;99.90;;;;;;5014371;28;20088;-81
2023/12/23 11:19:04;;;;;;;29.30;26.40;;;17.50;99.90;;;;;;4997377;28;20030;-81
2023/12/23 11:21:35;;;;;;;29.58;26.38;;;17.40;99.90;;;;;;5017711;28;20033;-82
2023/12/23 11:24:02;;;;;;;28.77;26.10;;;17.40;99.90;;;;;;4997809;28;20550;-81
2023/12/23 11:26:40;;;;;;;28.20;25.67;;;17.40;99.90;;;;;;4999459;28;20040;-82
2023/12/23 11:29:14;;;;;;;29.70;27.23;;;17.50;99.90;;;;;;5017093;28;20037;-82
2023/12/23 11:31:41;;;;;;;34.38;28.60;;;17.40;99.90;;;;;;5000714;28;20034;-81
2023/12/23 11:34:20;;;;;;;27.83;25.60;;;17.60;99.90;;;;;;5034772;28;20104;-82
2023/12/23 11:36:47;;;;;;;29.58;26.48;;;17.50;99.90;;;;;;4996408;28;20046;-81
2023/12/23 11:39:17;;;;;;;28.85;26.10;;;17.60;99.90;;;;;;4997288;28;20026;-81
2023/12/23 11:41:45;;;;;;;28.52;25.48;;;17.60;99.90;;;;;;4997392;28;20032;-81
2023/12/23 11:44:15;;;;;;;28.80;26.23;;;17.60;99.90;;;;;;4997235;28;20387;-81
2023/12/23 11:46:43;;;;;;;29.92;26.98;;;17.60;99.90;;;;;;5000403;28;20025;-81
2023/12/23 11:49:10;;;;;;;29.80;26.88;;;17.60;99.90;;;;;;5034512;28;20033;-81
2023/12/23 11:51:39;;;;;;;30.27;27.08;;;17.60;99.90;;;;;;5016878;28;20037;-81
2023/12/23 11:54:07;;;;;;;30.23;27.05;;;17.60;99.90;;;;;;5000261;28;20056;-81
2023/12/23 11:56:34;;;;;;;28.52;26.08;;;17.60;99.90;;;;;;5014321;28;20129;-81
2023/12/23 11:59:02;;;;;;;29.58;26.42;;;17.50;99.90;;;;;;4997055;28;20022;-81
2023/12/23 12:01:33;;;;;;;29.23;26.73;;;17.60;99.90;;;;;;4996933;28;20376;-81
2023/12/23 12:04:00;;;;;;;29.05;26.42;;;17.60;99.90;;;;;;5014271;28;20061;-81
2023/12/23 12:06:26;;;;;;;28.80;26.10;;;17.60;99.90;;;;;;4997623;28;20033;-81
2023/12/23 12:08:55;;;;;;;29.00;26.00;;;17.60;99.90;;;;;;5016451;28;20021;-81
2023/12/23 12:11:28;;;;;;;28.90;26.50;;;17.50;99.90;;;;;;5016294;28;20025;-82
2023/12/23 12:13:59;;;;;;;42.15;27.10;;;17.50;99.90;;;;;;4999822;28;20025;-81
2023/12/23 12:16:25;;;;;;;31.65;28.38;;;17.50;99.90;;;;;;5015664;28;20041;-81
2023/12/23 12:18:52;;;;;;;29.45;26.52;;;17.50;99.90;;;;;;4996704;28;20025;-81
2023/12/23 12:21:20;;;;;;;30.70;26.75;;;17.50;99.90;;;;;;4980340;28;20084;-81
2023/12/23 12:23:51;;;;;;;30.25;26.92;;;17.50;99.90;;;;;;4996379;28;20438;-81
2023/12/23 12:26:19;;;;;;;28.70;26.23;;;17.40;99.90;;;;;;4996577;28;20101;-80
2023/12/23 12:28:45;;;;;;;29.88;26.90;;;17.40;99.90;;;;;;5033550;28;20104;-81
2023/12/23 12:31:15;;;;;;;29.70;26.63;;;17.40;99.90;;;;;;5015502;28;20076;-80
2023/12/23 12:33:44;;;;;;;30.50;27.30;;;17.50;99.90;;;;;;4979848;28;20384;-81
2023/12/23 12:36:16;;;;;;;28.65;26.42;;;17.60;99.90;;;;;;4994203;28;20038;-81